createdAt,value
2022-10-01T00:01:46.512Z,3.80
2022-10-01T00:06:03.731Z,4.53
2022-10-01T00:10:16.100Z,4.57
2022-10-01T00:14:27.967Z,4.30
2022-10-01T00:18:42.203Z,4.40
2022-10-01T00:22:53.829Z,4.60
2022-10-01T00:27:05.363Z,4.90
2022-10-01T00:31:16.913Z,4.60
2022-10-01T00:35:28.644Z,4.37
2022-10-01T00:39:40.111Z,4.67
2022-10-01T00:44:18.248Z,4.17
2022-10-01T00:48:34.785Z,4.47
2022-10-01T00:52:52.270Z,4.60
2022-10-01T00:57:07.179Z,5.33
2022-10-01T01:01:19.044Z,5.07
2022-10-01T01:05:30.890Z,5.23
2022-10-01T01:09:46.249Z,5.13
2022-10-01T01:14:16.389Z,4.93
2022-10-01T01:18:53.008Z,5.17
2022-10-01T01:23:25.327Z,5.03
2022-10-01T01:27:42.073Z,4.90
2022-10-01T01:31:58.784Z,4.53
2022-10-01T01:36:16.414Z,4.77
2022-10-01T01:40:31.564Z,4.60
2022-10-01T01:44:46.101Z,4.87
2022-10-01T01:49:00.650Z,5.03
2022-10-01T01:53:12.229Z,4.83
2022-10-01T01:57:23.821Z,4.30
2022-10-01T02:01:42.611Z,4.13
2022-10-01T02:06:22.240Z,4.20
2022-10-01T02:10:36.963Z,4.57
2022-10-01T02:14:59.501Z,4.03
2022-10-01T02:19:41.213Z,3.17
2022-10-01T02:23:59.431Z,3.57
2022-10-01T02:28:16.380Z,3.83
2022-10-01T02:32:31.232Z,3.60
2022-10-01T02:36:45.270Z,3.20
2022-10-01T02:41:00.965Z,2.70
2022-10-01T02:45:15.460Z,3.10
2022-10-01T02:49:30.815Z,2.80
2022-10-01T02:53:49.007Z,2.63
2022-10-01T02:58:00.499Z,2.83
2022-10-01T03:02:12.300Z,2.40
2022-10-01T03:06:23.911Z,2.23
2022-10-01T03:10:35.458Z,2.20
2022-10-01T03:14:47.589Z,2.07
2022-10-01T03:18:59.165Z,2.10
2022-10-01T03:23:10.685Z,1.83
2022-10-01T03:27:22.440Z,1.60
2022-10-01T03:31:34.274Z,1.80
2022-10-01T03:35:46.049Z,1.90
2022-10-01T03:39:57.549Z,1.70
2022-10-01T03:44:09.021Z,1.90
2022-10-01T03:48:21.126Z,1.80
2022-10-01T03:52:32.610Z,1.83
2022-10-01T03:56:44.115Z,1.90
2022-10-01T04:00:55.930Z,1.80
2022-10-01T04:05:08.264Z,2.00
2022-10-01T04:09:20.919Z,1.80
2022-10-01T04:13:33.181Z,1.93
2022-10-01T04:17:46.057Z,1.63
2022-10-01T04:21:57.744Z,1.80
2022-10-01T04:26:09.577Z,1.80
2022-10-01T04:30:21.649Z,1.90
2022-10-01T04:34:51.777Z,1.77
2022-10-01T04:39:03.327Z,1.60
2022-10-01T04:43:14.883Z,1.80
2022-10-01T04:47:26.399Z,1.67
2022-10-01T04:51:37.898Z,2.10
2022-10-01T04:55:49.438Z,1.47
2022-10-01T05:00:01.996Z,1.80
2022-10-01T05:04:13.526Z,1.90
2022-10-01T05:08:25.016Z,2.07
2022-10-01T05:12:36.533Z,2.00
2022-10-01T05:16:48.075Z,2.20
2022-10-01T05:20:59.626Z,2.00
2022-10-01T05:25:11.236Z,1.90
2022-10-01T05:29:23.043Z,2.15
2022-10-01T05:33:34.686Z,2.20
2022-10-01T05:37:46.197Z,2.17
2022-10-01T05:41:59.137Z,2.10
2022-10-01T05:46:12.191Z,2.70
2022-10-01T05:50:25.364Z,2.40
2022-10-01T05:54:37.428Z,3.05
2022-10-01T05:58:48.957Z,3.38
2022-10-01T06:03:02.575Z,3.53
2022-10-01T06:07:14.179Z,3.80
2022-10-01T06:11:26.834Z,3.95
2022-10-01T06:15:38.944Z,4.00
2022-10-01T06:19:51.486Z,4.07
2022-10-01T06:24:03.044Z,4.53
2022-10-01T06:28:14.822Z,4.40
2022-10-01T06:32:26.481Z,4.72
2022-10-01T06:36:37.997Z,5.03
2022-10-01T06:40:57.960Z,5.45
2022-10-01T06:45:09.905Z,5.57
2022-10-01T06:49:22.202Z,5.22
2022-10-01T06:53:34.042Z,6.10
2022-10-01T06:57:46.322Z,6.60
2022-10-01T07:01:57.926Z,7.10
2022-10-01T07:06:11.216Z,7.43
2022-10-01T07:10:23.277Z,8.30
2022-10-01T07:14:35.253Z,8.38
2022-10-01T07:18:46.785Z,8.30
2022-10-01T07:22:59.636Z,10.70
2022-10-01T07:27:11.160Z,10.05
2022-10-01T07:31:24.250Z,12.52
2022-10-01T07:35:38.160Z,9.93
2022-10-01T07:39:49.803Z,9.77
2022-10-01T07:44:03.379Z,9.57
2022-10-01T07:48:15.096Z,9.93
2022-10-01T07:52:26.637Z,10.25
2022-10-01T07:56:38.576Z,11.25
2022-10-01T08:00:52.072Z,10.93
2022-10-01T08:05:18.738Z,11.27
2022-10-01T08:09:30.419Z,10.82
2022-10-01T08:13:42.793Z,12.43
2022-10-01T08:17:54.364Z,13.30
2022-10-01T08:22:07.127Z,10.15
2022-10-01T08:26:18.657Z,13.30
2022-10-01T08:30:30.916Z,10.75
2022-10-01T08:34:42.644Z,9.70
2022-10-01T08:38:54.265Z,9.07
2022-10-01T08:43:07.448Z,10.60
2022-10-01T08:47:31.196Z,10.55
2022-10-01T08:51:58.387Z,8.75
2022-10-01T08:56:21.721Z,5.78
2022-10-01T09:00:36.624Z,6.00
2022-10-01T09:04:51.131Z,4.70
2022-10-01T09:09:23.947Z,4.07
2022-10-01T09:13:57.503Z,4.50
2022-10-01T09:18:37.459Z,4.32
2022-10-01T09:23:28.883Z,4.63
2022-10-01T09:27:40.712Z,4.13
2022-10-01T09:31:53.630Z,4.03
2022-10-01T09:36:16.073Z,4.68
2022-10-01T09:40:35.607Z,4.85
2022-10-01T09:44:47.589Z,4.57
2022-10-01T09:49:28.041Z,4.40
2022-10-01T09:53:46.764Z,3.03
2022-10-01T09:58:09.496Z,2.50
2022-10-01T10:02:31.428Z,2.20
2022-10-01T10:06:43.103Z,2.50
2022-10-01T10:11:01.629Z,2.75
2022-10-01T10:15:17.632Z,1.95
2022-10-01T10:19:30.993Z,1.40
2022-10-01T10:23:50.869Z,2.10
2022-10-01T10:28:02.751Z,2.03
2022-10-01T10:32:41.487Z,1.92
2022-10-01T10:37:07.418Z,2.20
2022-10-01T10:41:26.058Z,2.28
2022-10-01T10:45:39.770Z,1.90
2022-10-01T10:49:53.746Z,2.28
2022-10-01T10:54:18.224Z,4.30
2022-10-01T10:58:33.333Z,2.28
2022-10-01T11:03:06.494Z,1.92
2022-10-01T11:07:23.704Z,2.60
2022-10-01T11:11:55.129Z,1.98
2022-10-01T11:16:18.687Z,2.33
2022-10-01T11:20:41.262Z,3.08
2022-10-01T11:25:23.722Z,1.95
2022-10-01T11:30:03.299Z,1.90
2022-10-01T11:34:25.228Z,2.22
2022-10-01T11:38:56.174Z,1.80
2022-10-01T11:43:32.377Z,2.22
2022-10-01T11:47:54.692Z,1.90
2022-10-01T11:52:26.239Z,1.83
2022-10-01T11:57:04.008Z,1.67
2022-10-01T12:01:25.096Z,1.70
2022-10-01T12:05:38.806Z,1.83
2022-10-01T12:10:17.716Z,1.70
2022-10-01T12:14:40.409Z,1.80
2022-10-01T12:19:07.249Z,1.73
2022-10-01T12:23:34.666Z,1.60
2022-10-01T12:28:28.294Z,1.50
2022-10-01T12:32:53.400Z,1.52
2022-10-01T12:37:26.960Z,1.77
2022-10-01T12:41:57.171Z,2.00
2022-10-01T12:46:27.577Z,2.20
2022-10-01T12:50:39.299Z,2.20
2022-10-01T12:55:13.705Z,2.25
2022-10-01T12:59:41.741Z,1.60
2022-10-01T13:04:03.644Z,2.13
2022-10-01T13:08:18.288Z,2.00
2022-10-01T13:12:59.495Z,2.08
2022-10-01T13:17:24.255Z,2.10
2022-10-01T13:22:11.119Z,2.22
2022-10-01T13:26:36.708Z,1.75
2022-10-01T13:30:59.098Z,1.98
2022-10-01T13:35:39.159Z,2.08
2022-10-01T13:39:50.707Z,1.88
2022-10-01T13:44:08.150Z,1.90
2022-10-01T13:48:21.187Z,1.75
2022-10-01T13:52:34.011Z,1.85
2022-10-01T13:56:45.484Z,2.05
2022-10-01T14:01:00.338Z,1.88
2022-10-01T14:05:17.728Z,1.80
2022-10-01T14:09:33.871Z,2.00
2022-10-01T14:14:09.425Z,1.90
2022-10-01T14:18:23.321Z,1.73
2022-10-01T14:22:59.465Z,2.00
2022-10-01T14:27:29.794Z,2.13
2022-10-01T14:31:50.909Z,1.58
2022-10-01T14:36:15.415Z,1.67
2022-10-01T14:40:36.634Z,1.83
2022-10-01T14:44:48.281Z,2.08
2022-10-01T14:49:00.639Z,1.80
2022-10-01T14:53:18.276Z,1.40
2022-10-01T14:57:33.569Z,1.85
2022-10-01T15:01:54.497Z,1.55
2022-10-01T15:06:18.053Z,1.80
2022-10-01T15:10:29.581Z,1.83
2022-10-01T15:14:42.811Z,2.22
2022-10-01T15:19:00.627Z,1.90
2022-10-01T15:23:12.135Z,2.22
2022-10-01T15:27:24.758Z,1.88
2022-10-01T15:31:36.948Z,2.20
2022-10-01T15:35:48.550Z,2.10
2022-10-01T15:40:01.295Z,2.05
2022-10-01T15:44:42.632Z,2.10
2022-10-01T15:49:17.259Z,2.40
2022-10-01T15:53:29.840Z,2.72
2022-10-01T15:57:42.070Z,2.08
2022-10-01T16:01:53.651Z,1.80
2022-10-01T16:06:08.382Z,1.95
2022-10-01T16:10:40.769Z,1.85
2022-10-01T16:15:03.956Z,1.75
2022-10-01T16:19:31.182Z,2.72
2022-10-01T16:24:27.666Z,2.35
2022-10-01T16:28:39.199Z,2.88
2022-10-01T16:32:50.719Z,2.65
2022-10-01T16:37:02.326Z,3.40
2022-10-01T16:41:24.652Z,3.35
2022-10-01T16:45:42.613Z,3.95
2022-10-01T16:49:54.238Z,4.68
2022-10-01T16:54:07.631Z,3.67
2022-10-01T16:58:20.221Z,4.15
2022-10-01T17:02:31.772Z,5.47
2022-10-01T17:06:43.352Z,3.75
2022-10-01T17:10:59.793Z,3.50
2022-10-01T17:15:17.649Z,3.00
2022-10-01T17:19:29.286Z,2.67
2022-10-01T17:23:40.812Z,3.65
2022-10-01T17:27:52.481Z,3.58
2022-10-01T17:32:04.099Z,2.60
2022-10-01T17:36:15.706Z,2.80
2022-10-01T17:40:27.198Z,2.33
2022-10-01T17:44:38.673Z,2.88
2022-10-01T17:48:50.831Z,3.03
2022-10-01T17:53:02.355Z,3.25
2022-10-01T17:57:13.909Z,3.22
2022-10-01T18:01:25.431Z,2.80
2022-10-01T18:05:37.013Z,3.13
2022-10-01T18:09:48.473Z,2.88
2022-10-01T18:13:59.995Z,2.90
2022-10-01T18:19:51.461Z,2.78
2022-10-01T18:22:42.983Z,2.42
2022-10-01T18:26:54.865Z,2.30
2022-10-01T18:31:18.724Z,2.40
2022-10-01T18:35:33.103Z,3.13
2022-10-01T18:39:49.734Z,3.50
2022-10-01T18:44:01.589Z,3.67
2022-10-01T18:48:31.838Z,3.72
2022-10-01T18:52:50.353Z,4.10
2022-10-01T18:57:33.029Z,4.03
2022-10-01T19:02:02.666Z,4.18
2022-10-01T19:06:26.425Z,3.22
2022-10-01T19:10:54.996Z,3.60
2022-10-01T19:15:16.972Z,3.03
2022-10-01T19:20:06.066Z,3.95
2022-10-01T19:24:35.801Z,6.32
2022-10-01T19:29:12.018Z,6.35
2022-10-01T19:33:24.481Z,7.47
2022-10-01T19:37:39.246Z,7.18
2022-10-01T19:42:06.083Z,4.47
2022-10-01T19:46:26.604Z,4.68
2022-10-01T19:50:43.345Z,4.43
2022-10-01T19:55:00.652Z,4.07
2022-10-01T19:59:14.604Z,4.15
2022-10-01T20:03:48.417Z,3.92
2022-10-01T20:08:06.179Z,4.53
2022-10-01T20:12:28.141Z,3.75
2022-10-01T20:16:47.063Z,4.95
2022-10-01T20:21:37.598Z,4.70
2022-10-01T20:26:10.384Z,5.07
2022-10-01T20:30:23.753Z,6.22
2022-10-01T20:34:35.123Z,10.37
2022-10-01T20:39:03.449Z,7.88
2022-10-01T20:43:21.103Z,5.97
2022-10-01T20:47:49.155Z,6.10
2022-10-01T20:52:13.017Z,5.13
2022-10-01T20:56:33.481Z,3.58
2022-10-01T21:00:47.571Z,4.15
2022-10-01T21:05:07.477Z,3.90
2022-10-01T21:09:31.006Z,3.70
2022-10-01T21:14:26.024Z,3.63
2022-10-01T21:18:57.261Z,3.85
2022-10-01T21:23:11.579Z,3.85
2022-10-01T21:27:54.795Z,3.50
2022-10-01T21:32:36.474Z,2.95
2022-10-01T21:36:58.540Z,3.22
2022-10-01T21:41:27.918Z,3.47
2022-10-01T21:45:59.674Z,3.23
2022-10-01T21:50:20.613Z,3.80
2022-10-01T21:55:05.635Z,4.70
2022-10-01T21:59:49.463Z,4.03
2022-10-01T22:04:12.665Z,3.67
2022-10-01T22:08:46.301Z,4.13
2022-10-01T22:13:02.246Z,4.67
2022-10-01T22:17:22.683Z,5.53
2022-10-01T22:21:39.429Z,4.70
2022-10-01T22:25:57.360Z,4.33
2022-10-01T22:30:17.108Z,3.43
2022-10-01T22:34:37.611Z,4.00
2022-10-01T22:38:55.549Z,3.97
2022-10-01T22:43:11.058Z,3.67
2022-10-01T22:47:43.132Z,4.00
2022-10-01T22:52:28.669Z,3.97
2022-10-01T22:56:59.182Z,3.60
2022-10-01T23:01:41.082Z,3.80
2022-10-01T23:06:04.925Z,4.60
2022-10-01T23:10:24.100Z,4.60
2022-10-01T23:15:05.980Z,5.25
2022-10-01T23:19:28.294Z,4.55
2022-10-01T23:23:42.994Z,4.57
2022-10-01T23:28:10.632Z,4.80
2022-10-01T23:32:34.234Z,4.80
2022-10-01T23:37:02.819Z,4.60
2022-10-01T23:41:18.092Z,4.78
2022-10-01T23:45:44.979Z,3.72
2022-10-01T23:50:00.404Z,3.47
2022-10-01T23:54:27.080Z,3.80
2022-10-01T23:58:55.400Z,3.58
